Time;durP1;ratioP1;P1;durP2;ratioP2;P2;SDS_P1;SDS_P2;PMS_P1;PMS_P2;Temp;Humidity;BMP_temperature;BMP_pressure;BME280_temperature;BME280_humidity;BME280_pressure;Samples;Min_cycle;Max_cycle;Signal;HPM_P1;HPM_P2
2021/07/19 00:01:05;;;;;;;5.47;2.78;;;;;;;;;;5073890;28;20505;-53
2021/07/19 00:03:31;;;;;;;11.55;3.85;;;;;;;;;;5074076;28;20020;-52
2021/07/19 00:05:57;;;;;;;7.80;3.53;;;;;;;;;;5075018;28;20064;-53
2021/07/19 00:08:23;;;;;;;10.93;3.80;;;;;;;;;;5074866;28;20027;-52
2021/07/19 00:10:49;;;;;;;8.32;3.63;;;;;;;;;;5073725;28;20432;-53
2021/07/19 00:13:15;;;;;;;15.05;3.40;;;;;;;;;;5074309;28;20021;-53
2021/07/19 00:15:42;;;;;;;6.30;2.85;;;;;;;;;;5074445;28;20106;-53
2021/07/19 00:18:08;;;;;;;4.32;2.60;;;;;;;;;;5074604;28;20052;-52
2021/07/19 00:20:34;;;;;;;2.50;1.75;;;;;;;;;;5073647;28;20028;-53
2021/07/19 00:22:59;;;;;;;2.97;1.88;;;;;;;;;;5074029;28;20044;-53
2021/07/19 00:25:26;;;;;;;3.75;2.13;;;;;;;;;;5074212;28;20035;-52
2021/07/19 00:27:55;;;;;;;2.80;1.73;;;;;;;;;;5073807;28;20013;-52
2021/07/19 00:30:22;;;;;;;3.15;1.80;;;;;;;;;;5073631;28;20521;-52
2021/07/19 00:32:48;;;;;;;5.40;2.40;;;;;;;;;;5073575;28;20120;-52
2021/07/19 00:35:14;;;;;;;2.67;1.70;;;;;;;;;;5073981;28;20350;-52
2021/07/19 00:37:41;;;;;;;6.50;2.90;;;;;;;;;;5074065;28;20025;-52
2021/07/19 00:40:19;;;;;;;8.38;4.03;;;;;;;;;;5073854;28;20350;-52
2021/07/19 00:42:46;;;;;;;5.70;2.97;;;;;;;;;;5072656;28;20028;-52
2021/07/19 00:45:13;;;;;;;9.55;3.92;;;;;;;;;;5074007;28;20035;-52
2021/07/19 00:47:39;;;;;;;8.95;4.10;;;;;;;;;;5074044;28;20055;-52
2021/07/19 00:50:07;;;;;;;7.88;3.83;;;;;;;;;;5073521;28;20016;-52
2021/07/19 00:52:33;;;;;;;12.43;3.90;;;;;;;;;;5073044;28;20059;-53
2021/07/19 00:54:59;;;;;;;6.32;3.30;;;;;;;;;;5073856;28;20020;-52
2021/07/19 00:57:26;;;;;;;5.93;3.47;;;;;;;;;;5073131;28;20021;-53
2021/07/19 00:59:53;;;;;;;9.77;3.88;;;;;;;;;;5073024;28;20040;-52
2021/07/19 01:02:19;;;;;;;11.18;4.55;;;;;;;;;;5073203;28;20047;-52
2021/07/19 01:04:45;;;;;;;6.05;3.47;;;;;;;;;;5073955;28;20025;-52
2021/07/19 01:07:12;;;;;;;7.50;3.17;;;;;;;;;;5073805;28;20036;-52
2021/07/19 01:09:38;;;;;;;5.10;3.03;;;;;;;;;;5073146;28;20366;-52
2021/07/19 01:12:04;;;;;;;9.60;3.10;;;;;;;;;;5071994;28;20024;-53
2021/07/19 01:14:30;;;;;;;6.80;3.55;;;;;;;;;;5073177;28;20032;-52
2021/07/19 01:16:56;;;;;;;6.68;2.72;;;;;;;;;;5073310;28;20036;-53
2021/07/19 01:19:23;;;;;;;4.82;2.67;;;;;;;;;;5073318;28;20025;-53
2021/07/19 01:22:07;;;;;;;6.00;3.00;;;;;;;;;;5072474;28;20089;-52
2021/07/19 01:24:42;;;;;;;7.55;3.22;;;;;;;;;;5072510;28;20588;-52
2021/07/19 01:27:31;;;;;;;4.18;2.30;;;;;;;;;;5073047;28;20058;-52
2021/07/19 01:29:58;;;;;;;9.65;2.97;;;;;;;;;;5069839;28;20037;-53
2021/07/19 01:32:25;;;;;;;6.07;2.88;;;;;;;;;;5072697;28;20031;-53
2021/07/19 01:34:52;;;;;;;6.95;2.95;;;;;;;;;;5072805;28;20036;-52
2021/07/19 01:37:18;;;;;;;7.72;2.97;;;;;;;;;;5072783;28;20128;-52
2021/07/19 01:39:46;;;;;;;4.35;2.45;;;;;;;;;;5073096;28;20070;-52
2021/07/19 01:42:12;;;;;;;5.05;2.85;;;;;;;;;;5072342;28;20032;-52
2021/07/19 01:44:39;;;;;;;6.45;2.63;;;;;;;;;;5073017;28;20035;-52
2021/07/19 01:47:08;;;;;;;8.38;2.97;;;;;;;;;;5069604;28;20393;-52
2021/07/19 01:49:35;;;;;;;6.28;2.53;;;;;;;;;;5084741;28;20051;-52
2021/07/19 01:52:01;;;;;;;4.57;2.42;;;;;;;;;;5072157;28;20028;-52
2021/07/19 01:54:28;;;;;;;6.88;2.20;;;;;;;;;;5073178;28;20024;-52
2021/07/19 01:56:54;;;;;;;5.40;2.05;;;;;;;;;;5072854;28;20081;-52
2021/07/19 01:59:20;;;;;;;5.95;2.17;;;;;;;;;;5072710;28;20024;-53
2021/07/19 02:01:47;;;;;;;5.28;2.63;;;;;;;;;;5071635;28;20511;-52
2021/07/19 02:04:13;;;;;;;4.00;2.30;;;;;;;;;;5072444;28;20434;-52
2021/07/19 02:06:42;;;;;;;3.95;2.60;;;;;;;;;;5073043;28;20025;-52
2021/07/19 02:09:09;;;;;;;4.78;2.47;;;;;;;;;;5072800;28;20099;-52
2021/07/19 02:11:36;;;;;;;3.42;2.20;;;;;;;;;;5072145;28;20087;-52
2021/07/19 02:14:06;;;;;;;7.30;2.75;;;;;;;;;;5072598;28;20081;-52
2021/07/19 02:16:32;;;;;;;6.30;2.58;;;;;;;;;;5072867;28;20032;-52
2021/07/19 02:18:58;;;;;;;3.88;2.53;;;;;;;;;;5075069;28;20328;-52
2021/07/19 02:21:25;;;;;;;4.55;2.42;;;;;;;;;;5091668;28;20036;-52
2021/07/19 02:23:52;;;;;;;2.45;1.98;;;;;;;;;;5093037;28;20073;-52
2021/07/19 02:26:19;;;;;;;3.55;2.15;;;;;;;;;;5095158;28;20458;-52
2021/07/19 02:28:45;;;;;;;3.60;2.20;;;;;;;;;;5096842;28;20337;-52
2021/07/19 02:31:12;;;;;;;6.40;2.10;;;;;;;;;;5095685;28;20028;-52
2021/07/19 02:33:39;;;;;;;5.75;2.03;;;;;;;;;;5096833;28;20115;-52
2021/07/19 02:36:06;;;;;;;4.80;2.50;;;;;;;;;;5096368;28;20459;-52
2021/07/19 02:38:32;;;;;;;3.10;2.20;;;;;;;;;;5096607;28;20067;-52
2021/07/19 02:40:59;;;;;;;2.85;1.95;;;;;;;;;;5095497;28;20029;-52
2021/07/19 02:43:25;;;;;;;4.35;2.40;;;;;;;;;;5096188;28;20104;-52
2021/07/19 02:45:54;;;;;;;3.10;2.15;;;;;;;;;;5096712;28;20338;-52
2021/07/19 02:48:20;;;;;;;2.65;1.90;;;;;;;;;;5096238;28;20430;-52
2021/07/19 02:50:47;;;;;;;3.20;1.80;;;;;;;;;;5085712;28;20054;-52
2021/07/19 02:53:14;;;;;;;4.70;2.03;;;;;;;;;;5075663;28;20119;-52
2021/07/19 02:55:42;;;;;;;2.95;2.10;;;;;;;;;;5075644;28;20227;-52
2021/07/19 02:58:11;;;;;;;2.42;1.90;;;;;;;;;;5075793;28;20063;-52
2021/07/19 03:00:37;;;;;;;3.27;2.30;;;;;;;;;;5075069;28;20031;-52
2021/07/19 03:03:06;;;;;;;3.33;2.25;;;;;;;;;;5075516;28;20107;-53
2021/07/19 03:05:39;;;;;;;3.35;1.83;;;;;;;;;;5075840;28;20032;-53
2021/07/19 03:08:06;;;;;;;3.63;2.13;;;;;;;;;;5075857;28;20025;-52
2021/07/19 03:10:34;;;;;;;3.78;2.10;;;;;;;;;;5074967;28;20468;-52
2021/07/19 03:13:06;;;;;;;3.40;1.83;;;;;;;;;;5075491;28;20024;-52
2021/07/19 03:15:33;;;;;;;2.83;1.98;;;;;;;;;;5075455;28;20063;-52
2021/07/19 03:18:03;;;;;;;5.20;2.30;;;;;;;;;;5075561;28;20511;-53
2021/07/19 03:20:36;;;;;;;2.78;2.15;;;;;;;;;;5074635;28;20374;-52
2021/07/19 03:23:02;;;;;;;4.00;2.38;;;;;;;;;;5075785;28;20036;-52
2021/07/19 03:25:28;;;;;;;3.25;2.10;;;;;;;;;;5073527;28;20530;-52
2021/07/19 03:27:55;;;;;;;4.53;2.35;;;;;;;;;;5078984;28;20032;-52
2021/07/19 03:30:21;;;;;;;5.65;2.67;;;;;;;;;;5075416;28;20024;-52
2021/07/19 03:32:48;;;;;;;6.00;2.50;;;;;;;;;;5089575;28;20020;-52
2021/07/19 03:35:24;;;;;;;5.72;2.53;;;;;;;;;;5095155;28;20028;-52
2021/07/19 03:37:51;;;;;;;3.88;2.17;;;;;;;;;;5094203;28;20023;-52
2021/07/19 03:40:21;;;;;;;4.03;2.63;;;;;;;;;;5095198;28;20102;-52
2021/07/19 03:42:48;;;;;;;5.90;2.58;;;;;;;;;;5094536;28;20046;-52
2021/07/19 03:45:15;;;;;;;4.10;2.55;;;;;;;;;;5077791;28;20032;-52
2021/07/19 03:47:43;;;;;;;4.03;2.22;;;;;;;;;;5074936;28;20112;-52
2021/07/19 03:50:10;;;;;;;5.03;2.45;;;;;;;;;;5074445;28;20069;-52
2021/07/19 03:52:40;;;;;;;5.25;2.67;;;;;;;;;;5073971;28;20028;-52
2021/07/19 03:55:07;;;;;;;3.35;2.25;;;;;;;;;;5074579;28;20020;-52
2021/07/19 03:57:38;;;;;;;3.65;2.42;;;;;;;;;;5074468;28;20529;-52
2021/07/19 04:00:09;;;;;;;3.75;2.15;;;;;;;;;;5073401;28;20031;-52
2021/07/19 04:02:36;;;;;;;4.97;2.67;;;;;;;;;;5072973;28;20074;-52
2021/07/19 04:05:07;;;;;;;3.40;2.35;;;;;;;;;;5073950;28;20328;-52
2021/07/19 04:07:44;;;;;;;4.32;2.20;;;;;;;;;;5074721;28;20031;-52
2021/07/19 04:10:11;;;;;;;6.82;2.78;;;;;;;;;;5073227;28;20033;-52
2021/07/19 04:12:37;;;;;;;3.80;2.00;;;;;;;;;;5073574;28;20104;-52
2021/07/19 04:15:04;;;;;;;2.75;1.80;;;;;;;;;;5074251;28;20035;-52
2021/07/19 04:17:30;;;;;;;3.17;2.17;;;;;;;;;;5074500;28;20098;-52
2021/07/19 04:19:56;;;;;;;3.42;2.13;;;;;;;;;;5074107;28;20048;-52
2021/07/19 04:22:24;;;;;;;4.18;1.98;;;;;;;;;;5073411;28;20036;-52
2021/07/19 04:24:50;;;;;;;2.20;1.92;;;;;;;;;;5074084;28;20071;-52
2021/07/19 04:27:16;;;;;;;2.92;2.15;;;;;;;;;;5080971;28;20442;-52
2021/07/19 04:29:47;;;;;;;3.47;2.13;;;;;;;;;;5093714;28;20107;-53
2021/07/19 04:32:13;;;;;;;4.20;2.33;;;;;;;;;;5093129;28;20469;-52
2021/07/19 04:34:42;;;;;;;2.88;2.30;;;;;;;;;;5094395;28;20061;-52
2021/07/19 04:37:09;;;;;;;5.32;2.53;;;;;;;;;;5094402;28;20028;-52
2021/07/19 04:39:37;;;;;;;4.63;2.50;;;;;;;;;;5093913;28;20020;-53
2021/07/19 04:42:04;;;;;;;2.63;2.38;;;;;;;;;;5092931;28;20028;-52
2021/07/19 04:44:31;;;;;;;7.00;2.20;;;;;;;;;;5094615;28;20032;-52
2021/07/19 04:46:57;;;;;;;3.90;2.13;;;;;;;;;;5093826;28;20032;-52
2021/07/19 04:49:23;;;;;;;5.03;2.25;;;;;;;;;;5093887;28;20020;-52
2021/07/19 04:51:49;;;;;;;4.03;2.35;;;;;;;;;;5074141;28;20111;-52
2021/07/19 04:54:38;;;;;;;4.05;2.40;;;;;;;;;;5073632;28;20071;-52
2021/07/19 04:57:05;;;;;;;5.38;2.10;;;;;;;;;;5073505;28;20070;-52
2021/07/19 04:59:33;;;;;;;3.47;2.88;;;;;;;;;;5073801;28;20449;-52
2021/07/19 05:02:00;;;;;;;6.68;2.63;;;;;;;;;;5072546;28;20071;-52
2021/07/19 05:04:26;;;;;;;6.45;2.63;;;;;;;;;;5073524;28;20024;-52
2021/07/19 05:06:53;;;;;;;5.20;2.70;;;;;;;;;;5071575;28;20028;-52
2021/07/19 05:09:20;;;;;;;3.83;2.15;;;;;;;;;;5087442;28;20058;-52
2021/07/19 05:11:50;;;;;;;7.13;2.42;;;;;;;;;;5092214;28;20047;-52
2021/07/19 05:14:16;;;;;;;3.05;2.10;;;;;;;;;;5093707;28;20361;-52
2021/07/19 05:16:43;;;;;;;6.57;2.13;;;;;;;;;;5089497;28;20111;-52
2021/07/19 05:19:10;;;;;;;3.38;2.17;;;;;;;;;;5073466;28;20127;-52
2021/07/19 05:21:37;;;;;;;2.85;2.10;;;;;;;;;;5072243;28;20051;-52
2021/07/19 05:24:03;;;;;;;3.40;2.20;;;;;;;;;;5073380;28;20048;-51
2021/07/19 05:26:31;;;;;;;2.75;2.05;;;;;;;;;;5072486;28;20426;-52
2021/07/19 05:28:57;;;;;;;5.75;2.58;;;;;;;;;;5073182;28;20047;-52
2021/07/19 05:31:24;;;;;;;4.22;2.80;;;;;;;;;;5072067;28;20338;-52
2021/07/19 05:33:51;;;;;;;3.95;2.30;;;;;;;;;;5073049;28;20028;-52
2021/07/19 05:36:17;;;;;;;5.45;2.55;;;;;;;;;;5072524;28;20417;-52
2021/07/19 05:38:43;;;;;;;4.63;2.60;;;;;;;;;;5089959;28;20028;-52
2021/07/19 05:41:09;;;;;;;4.43;2.70;;;;;;;;;;5091501;28;20031;-52
2021/07/19 05:43:36;;;;;;;8.55;3.10;;;;;;;;;;5092233;28;20046;-52
2021/07/19 05:46:03;;;;;;;9.38;2.38;;;;;;;;;;5092911;28;20028;-52
2021/07/19 05:48:29;;;;;;;3.95;2.53;;;;;;;;;;5092499;28;20032;-52
2021/07/19 05:50:56;;;;;;;7.22;2.95;;;;;;;;;;5091867;28;20069;-52
2021/07/19 05:53:22;;;;;;;3.90;2.17;;;;;;;;;;5092987;28;20081;-52
2021/07/19 05:55:49;;;;;;;4.95;2.53;;;;;;;;;;5093254;28;20028;-51
2021/07/19 05:58:16;;;;;;;4.72;3.15;;;;;;;;;;5092947;28;20349;-52
2021/07/19 06:00:42;;;;;;;4.18;2.53;;;;;;;;;;5091690;28;20031;-52
2021/07/19 06:03:08;;;;;;;5.60;2.75;;;;;;;;;;5092573;28;20032;-51
2021/07/19 06:05:34;;;;;;;5.10;3.00;;;;;;;;;;5093086;28;20058;-52
2021/07/19 06:08:00;;;;;;;6.80;3.50;;;;;;;;;;5092414;28;20023;-52
2021/07/19 06:10:26;;;;;;;5.93;2.92;;;;;;;;;;5092803;28;20028;-52
2021/07/19 06:12:52;;;;;;;3.88;2.28;;;;;;;;;;5092495;28;20016;-52
2021/07/19 06:15:20;;;;;;;7.50;2.95;;;;;;;;;;5092664;28;20024;-52
2021/07/19 06:17:46;;;;;;;6.30;2.92;;;;;;;;;;5092812;28;20502;-52
2021/07/19 06:20:13;;;;;;;7.55;3.33;;;;;;;;;;5092925;28;20024;-52
2021/07/19 06:22:40;;;;;;;3.35;2.22;;;;;;;;;;5091453;28;20028;-52
2021/07/19 06:25:08;;;;;;;8.25;3.10;;;;;;;;;;5092948;28;20089;-52
2021/07/19 06:27:34;;;;;;;5.97;2.53;;;;;;;;;;5092798;28;20024;-52
2021/07/19 06:30:00;;;;;;;9.27;3.47;;;;;;;;;;5092731;28;20039;-52
2021/07/19 06:32:26;;;;;;;5.82;3.15;;;;;;;;;;5091838;28;20028;-52
2021/07/19 06:34:52;;;;;;;4.78;3.25;;;;;;;;;;5092848;28;20051;-52
2021/07/19 06:37:18;;;;;;;4.32;2.88;;;;;;;;;;5092328;28;20020;-52
2021/07/19 06:39:44;;;;;;;5.60;3.35;;;;;;;;;;5092659;28;20035;-52
2021/07/19 06:42:10;;;;;;;4.22;2.85;;;;;;;;;;5091937;28;20028;-52
2021/07/19 06:44:36;;;;;;;6.05;3.60;;;;;;;;;;5092437;28;20358;-52
2021/07/19 06:47:02;;;;;;;7.68;3.63;;;;;;;;;;5092336;28;20111;-51
2021/07/19 06:49:28;;;;;;;5.60;3.10;;;;;;;;;;5092706;28;20032;-53
2021/07/19 06:51:54;;;;;;;6.38;3.28;;;;;;;;;;5091063;28;20035;-52
2021/07/19 06:54:20;;;;;;;4.97;2.85;;;;;;;;;;5092435;28;20016;-52
2021/07/19 06:56:46;;;;;;;6.95;3.63;;;;;;;;;;5092633;28;20024;-52
2021/07/19 06:59:13;;;;;;;4.13;2.92;;;;;;;;;;5092583;28;20070;-52
2021/07/19 07:01:40;;;;;;;9.48;3.70;;;;;;;;;;5091663;28;20028;-52
2021/07/19 07:04:07;;;;;;;5.32;3.20;;;;;;;;;;5092379;28;20046;-52
2021/07/19 07:06:33;;;;;;;5.03;3.17;;;;;;;;;;5092499;28;20413;-52
2021/07/19 07:08:59;;;;;;;6.97;3.78;;;;;;;;;;5092449;28;20035;-52
2021/07/19 07:11:27;;;;;;;11.23;4.55;;;;;;;;;;5093151;28;20191;-52
2021/07/19 07:13:53;;;;;;;7.38;3.58;;;;;;;;;;5096008;28;20020;-52
2021/07/19 07:16:19;;;;;;;6.68;3.55;;;;;;;;;;5096001;28;20514;-52
2021/07/19 07:18:45;;;;;;;10.00;3.95;;;;;;;;;;5095824;28;20024;-52
2021/07/19 07:21:11;;;;;;;6.18;3.63;;;;;;;;;;5094937;28;20465;-52
2021/07/19 07:23:37;;;;;;;7.10;3.97;;;;;;;;;;5095461;28;20349;-52
2021/07/19 07:26:04;;;;;;;11.82;4.30;;;;;;;;;;5095454;28;20028;-52
2021/07/19 07:28:30;;;;;;;9.00;4.65;;;;;;;;;;5095897;28;20024;-52
2021/07/19 07:30:56;;;;;;;7.25;3.60;;;;;;;;;;5095041;28;20028;-52
2021/07/19 07:33:22;;;;;;;6.55;3.90;;;;;;;;;;5095242;28;20471;-52
2021/07/19 07:35:50;;;;;;;7.15;3.88;;;;;;;;;;5095604;28;20020;-52
2021/07/19 07:38:16;;;;;;;4.63;2.85;;;;;;;;;;5095653;28;20036;-52
2021/07/19 07:40:42;;;;;;;13.85;5.07;;;;;;;;;;5094976;28;20024;-52
2021/07/19 07:43:08;;;;;;;10.90;6.07;;;;;;;;;;5095624;28;20085;-52
2021/07/19 07:45:34;;;;;;;11.23;4.95;;;;;;;;;;5095466;28;20453;-52
2021/07/19 07:48:00;;;;;;;5.13;3.08;;;;;;;;;;5095295;28;20107;-52
2021/07/19 07:50:26;;;;;;;6.13;3.60;;;;;;;;;;5095325;28;20390;-52
2021/07/19 07:52:52;;;;;;;8.07;3.80;;;;;;;;;;5094712;28;20085;-52
2021/07/19 07:55:18;;;;;;;6.07;3.95;;;;;;;;;;5095417;28;20453;-52
2021/07/19 07:57:44;;;;;;;7.60;4.80;;;;;;;;;;5095089;28;20027;-52
2021/07/19 08:00:15;;;;;;;9.35;4.50;;;;;;;;;;5095022;28;20051;-52
2021/07/19 08:02:41;;;;;;;7.35;5.20;;;;;;;;;;5093716;28;20028;-52
2021/07/19 08:05:08;;;;;;;11.48;5.50;;;;;;;;;;5095197;28;20077;-52
2021/07/19 08:07:34;;;;;;;7.85;4.28;;;;;;;;;;5094538;28;20024;-52
2021/07/19 08:10:00;;;;;;;11.77;5.38;;;;;;;;;;5094752;28;20070;-52
2021/07/19 08:12:26;;;;;;;6.93;4.40;;;;;;;;;;5094193;28;20027;-52
2021/07/19 08:14:52;;;;;;;11.15;5.38;;;;;;;;;;5094972;28;20031;-52
2021/07/19 08:17:19;;;;;;;7.43;4.57;;;;;;;;;;5094696;28;20048;-52
2021/07/19 08:19:45;;;;;;;8.25;4.88;;;;;;;;;;5094487;28;20023;-52
2021/07/19 08:22:13;;;;;;;6.75;4.65;;;;;;;;;;5093655;28;20032;-52
2021/07/19 08:24:40;;;;;;;8.98;4.22;;;;;;;;;;5094107;28;20034;-52
2021/07/19 08:27:06;;;;;;;5.93;4.07;;;;;;;;;;5094258;28;20074;-52
2021/07/19 08:29:32;;;;;;;9.77;4.80;;;;;;;;;;5094058;28;20621;-52
2021/07/19 08:31:58;;;;;;;11.93;4.80;;;;;;;;;;5093558;28;20028;-52
2021/07/19 08:34:24;;;;;;;9.05;4.90;;;;;;;;;;5094342;28;20065;-52
2021/07/19 08:36:50;;;;;;;6.40;4.28;;;;;;;;;;5094484;28;20028;-52
2021/07/19 08:39:17;;;;;;;11.05;4.40;;;;;;;;;;5094002;28;20454;-51
2021/07/19 08:41:43;;;;;;;6.57;4.20;;;;;;;;;;5093416;28;20024;-52
2021/07/19 08:44:10;;;;;;;8.45;4.60;;;;;;;;;;5093829;28;20527;-52
2021/07/19 08:46:40;;;;;;;7.53;3.97;;;;;;;;;;5094343;28;20060;-52
2021/07/19 08:49:06;;;;;;;;;;;;;;;;;;5094648;28;20031;-52
2021/07/19 08:51:33;;;;;;;6.70;3.85;;;;;;;;;;5093478;28;19904;-52
2021/07/19 08:54:03;;;;;;;7.25;4.43;;;;;;;;;;5094057;28;20032;-52
2021/07/19 08:56:29;;;;;;;5.45;3.97;;;;;;;;;;5094083;28;20028;-52
2021/07/19 08:58:55;;;;;;;11.48;4.15;;;;;;;;;;5093633;28;20021;-51
2021/07/19 09:01:21;;;;;;;7.88;4.22;;;;;;;;;;5093353;28;20046;-51
2021/07/19 09:03:48;;;;;;;9.23;3.85;;;;;;;;;;5093838;28;20345;-52
2021/07/19 09:06:14;;;;;;;6.07;3.72;;;;;;;;;;5094032;28;20081;-52
2021/07/19 09:08:48;;;;;;;6.22;3.65;;;;;;;;;;5094071;28;20044;-52
2021/07/19 09:11:15;;;;;;;8.10;4.07;;;;;;;;;;5093167;28;20032;-52
2021/07/19 09:13:55;;;;;;;5.65;3.45;;;;;;;;;;5093690;28;20439;-52
2021/07/19 09:16:21;;;;;;;7.53;3.85;;;;;;;;;;5094091;28;20031;-52
2021/07/19 09:19:01;;;;;;;5.00;3.50;;;;;;;;;;5093311;28;20012;-52
2021/07/19 09:21:34;;;;;;;8.48;4.30;;;;;;;;;;5092870;28;20457;-52
2021/07/19 09:24:06;;;;;;;5.13;3.17;;;;;;;;;;5093094;28;20346;-52
2021/07/19 09:26:33;;;;;;;5.95;3.78;;;;;;;;;;5093349;28;20122;-52
2021/07/19 09:28:59;;;;;;;6.50;3.28;;;;;;;;;;5093304;28;20024;-52
2021/07/19 09:31:32;;;;;;;6.85;3.67;;;;;;;;;;5093128;28;20020;-52
2021/07/19 09:33:59;;;;;;;4.53;3.10;;;;;;;;;;5093182;28;20024;-52
2021/07/19 09:36:27;;;;;;;11.32;3.80;;;;;;;;;;5093043;28;20054;-52
2021/07/19 09:39:09;;;;;;;6.38;4.22;;;;;;;;;;5093406;28;20086;-52
2021/07/19 09:41:36;;;;;;;7.88;3.78;;;;;;;;;;5092446;28;20024;-51
2021/07/19 09:44:10;;;;;;;6.25;3.45;;;;;;;;;;5092937;28;20020;-52
2021/07/19 09:46:37;;;;;;;5.03;3.00;;;;;;;;;;5092916;28;20040;-52
2021/07/19 09:49:04;;;;;;;6.57;3.75;;;;;;;;;;5092954;28;20111;-52
2021/07/19 09:51:32;;;;;;;3.50;3.08;;;;;;;;;;5092498;28;20028;-52
2021/07/19 09:54:08;;;;;;;7.28;4.07;;;;;;;;;;5093137;28;20195;-51
2021/07/19 09:56:34;;;;;;;6.00;3.72;;;;;;;;;;5092896;28;20027;-52
2021/07/19 09:59:11;;;;;;;4.47;3.28;;;;;;;;;;5092910;28;20021;-52
2021/07/19 10:01:46;;;;;;;6.22;3.65;;;;;;;;;;5092608;28;20032;-52
2021/07/19 10:04:18;;;;;;;8.98;3.58;;;;;;;;;;5092805;28;20413;-52
2021/07/19 10:06:45;;;;;;;4.70;3.22;;;;;;;;;;5093071;28;20044;-52
2021/07/19 10:09:12;;;;;;;6.15;3.45;;;;;;;;;;5093065;28;20353;-52
2021/07/19 10:11:40;;;;;;;6.57;3.45;;;;;;;;;;5091699;28;20028;-52
2021/07/19 10:14:06;;;;;;;5.18;3.17;;;;;;;;;;5092541;28;20460;-52
2021/07/19 10:16:33;;;;;;;5.63;3.30;;;;;;;;;;5093140;28;20020;-52
2021/07/19 10:19:00;;;;;;;5.95;4.22;;;;;;;;;;5092855;28;20028;-52
2021/07/19 10:21:31;;;;;;;5.03;2.90;;;;;;;;;;5091929;28;20036;-51
2021/07/19 10:23:59;;;;;;;4.57;3.25;;;;;;;;;;5092627;28;20404;-52
2021/07/19 10:26:25;;;;;;;5.07;3.00;;;;;;;;;;5092851;28;20060;-52
2021/07/19 10:28:52;;;;;;;7.07;3.38;;;;;;;;;;5092382;28;20500;-52
2021/07/19 10:31:18;;;;;;;5.10;3.40;;;;;;;;;;5092092;28;20119;-52
2021/07/19 10:33:46;;;;;;;7.47;3.58;;;;;;;;;;5092902;28;20024;-51
2021/07/19 10:36:12;;;;;;;10.38;3.72;;;;;;;;;;5092668;28;20028;-52
2021/07/19 10:38:40;;;;;;;2.83;2.30;;;;;;;;;;5092667;28;20082;-52
2021/07/19 10:41:07;;;;;;;7.22;3.67;;;;;;;;;;5091907;28;20055;-51
2021/07/19 10:43:33;;;;;;;6.47;2.80;;;;;;;;;;5092798;28;20070;-52
2021/07/19 10:46:12;;;;;;;11.60;3.50;;;;;;;;;;5093208;28;20032;-52
2021/07/19 10:48:38;;;;;;;5.93;3.63;;;;;;;;;;5096466;28;20016;-52
2021/07/19 10:51:15;;;;;;;9.63;3.90;;;;;;;;;;5095323;28;20047;-52
2021/07/19 10:53:41;;;;;;;5.50;2.97;;;;;;;;;;5096358;28;20063;-52
2021/07/19 10:56:09;;;;;;;7.30;2.92;;;;;;;;;;5096545;28;20035;-51
2021/07/19 10:58:44;;;;;;;4.80;3.47;;;;;;;;;;5096427;28;20020;-52
2021/07/19 11:01:20;;;;;;;5.32;3.17;;;;;;;;;;5095613;28;20024;-52
2021/07/19 11:03:46;;;;;;;4.55;2.92;;;;;;;;;;5096046;28;20410;-51
2021/07/19 11:06:12;;;;;;;12.68;3.05;;;;;;;;;;5094165;28;20445;-52
2021/07/19 11:08:51;;;;;;;6.25;3.13;;;;;;;;;;5096014;28;20449;-52
2021/07/19 11:11:27;;;;;;;4.40;2.97;;;;;;;;;;5095199;28;20301;-52
2021/07/19 11:13:57;;;;;;;6.90;3.55;;;;;;;;;;5096016;28;20020;-52
2021/07/19 11:16:23;;;;;;;7.00;2.80;;;;;;;;;;5095516;28;20024;-52
2021/07/19 11:19:07;;;;;;;4.60;3.60;;;;;;;;;;5095842;28;20381;-52
2021/07/19 11:21:33;;;;;;;4.75;2.63;;;;;;;;;;5094955;28;20474;-52
2021/07/19 11:24:16;;;;;;;6.25;3.05;;;;;;;;;;5096396;28;20031;-52
2021/07/19 11:26:55;;;;;;;4.07;2.60;;;;;;;;;;5095356;28;20035;-52
2021/07/19 11:29:50;;;;;;;14.32;3.72;;;;;;;;;;5095794;28;20020;-52
2021/07/19 11:32:22;;;;;;;5.25;3.20;;;;;;;;;;5089971;28;20031;-52
2021/07/19 11:34:49;;;;;;;8.05;2.92;;;;;;;;;;5095296;28;20062;-52
2021/07/19 11:37:17;;;;;;;7.32;3.63;;;;;;;;;;5095484;28;20093;-51
2021/07/19 11:39:44;;;;;;;4.38;2.45;;;;;;;;;;5095334;28;20441;-52
2021/07/19 11:42:12;;;;;;;8.38;3.03;;;;;;;;;;5094794;28;20024;-52
2021/07/19 11:44:38;;;;;;;6.22;3.28;;;;;;;;;;5094994;28;20044;-52
2021/07/19 11:47:05;;;;;;;9.43;3.13;;;;;;;;;;5095445;28;20028;-52
2021/07/19 11:49:32;;;;;;;7.47;3.38;;;;;;;;;;5095712;28;20024;-52
2021/07/19 11:51:58;;;;;;;5.85;3.25;;;;;;;;;;5094043;28;20124;-52
2021/07/19 11:54:24;;;;;;;5.07;3.42;;;;;;;;;;5095379;28;20024;-52
2021/07/19 11:56:57;;;;;;;4.95;3.33;;;;;;;;;;5094894;28;20157;-52
2021/07/19 11:59:24;;;;;;;4.00;2.55;;;;;;;;;;5094205;28;20031;-51
2021/07/19 12:01:57;;;;;;;11.77;3.05;;;;;;;;;;5094060;28;20016;-51
2021/07/19 12:04:23;;;;;;;4.43;2.97;;;;;;;;;;5094972;28;20059;-52
2021/07/19 12:06:52;;;;;;;8.55;3.70;;;;;;;;;;5094914;28;20437;-52
2021/07/19 12:09:18;;;;;;;5.97;3.42;;;;;;;;;;5094298;28;20024;-52
2021/07/19 12:11:51;;;;;;;6.78;3.17;;;;;;;;;;5094072;28;20032;-52
2021/07/19 12:14:17;;;;;;;5.35;3.10;;;;;;;;;;5095251;28;20016;-52
2021/07/19 12:16:43;;;;;;;6.72;2.70;;;;;;;;;;5095197;28;20560;-52
2021/07/19 12:19:13;;;;;;;5.00;3.15;;;;;;;;;;5094911;28;20035;-52
2021/07/19 12:21:41;;;;;;;3.47;2.53;;;;;;;;;;5093728;28;20046;-52
2021/07/19 12:24:08;;;;;;;7.88;2.95;;;;;;;;;;5094723;28;20024;-51
2021/07/19 12:26:36;;;;;;;7.60;3.10;;;;;;;;;;5094741;28;20077;-52
2021/07/19 12:29:02;;;;;;;5.57;3.60;;;;;;;;;;5094744;28;20032;-51
2021/07/19 12:31:34;;;;;;;6.43;3.35;;;;;;;;;;5093157;28;20047;-51
2021/07/19 12:34:06;;;;;;;5.30;3.30;;;;;;;;;;5094413;28;20092;-51
2021/07/19 12:36:32;;;;;;;5.20;2.65;;;;;;;;;;5094296;28;20031;-52
2021/07/19 12:38:59;;;;;;;4.43;2.50;;;;;;;;;;5094737;28;20020;-52
2021/07/19 12:41:25;;;;;;;6.95;3.40;;;;;;;;;;5093520;28;20426;-52
2021/07/19 12:43:51;;;;;;;5.47;3.20;;;;;;;;;;5094051;28;20030;-52
2021/07/19 12:46:17;;;;;;;5.60;2.40;;;;;;;;;;5093827;28;20118;-52
2021/07/19 12:48:45;;;;;;;5.45;2.95;;;;;;;;;;5094392;28;20024;-52
2021/07/19 12:51:12;;;;;;;7.10;3.25;;;;;;;;;;5093309;28;20024;-51
2021/07/19 12:53:38;;;;;;;4.32;2.60;;;;;;;;;;5094424;28;20077;-52
2021/07/19 12:56:09;;;;;;;7.63;3.38;;;;;;;;;;5093947;28;20024;-52
2021/07/19 12:58:35;;;;;;;5.22;2.67;;;;;;;;;;5093546;28;20024;-52
2021/07/19 13:01:13;;;;;;;6.75;2.92;;;;;;;;;;5093274;28;20062;-52
2021/07/19 13:03:39;;;;;;;7.30;2.55;;;;;;;;;;5094031;28;20058;-52
2021/07/19 13:06:05;;;;;;;8.38;2.78;;;;;;;;;;5093771;28;20035;-51
2021/07/19 13:08:32;;;;;;;5.25;2.28;;;;;;;;;;5093700;28;20012;-51
2021/07/19 13:11:11;;;;;;;3.50;2.13;;;;;;;;;;5092713;28;20042;-51
2021/07/19 13:13:37;;;;;;;5.72;2.33;;;;;;;;;;5094001;28;20028;-52
2021/07/19 13:16:04;;;;;;;8.10;3.20;;;;;;;;;;5093458;28;20449;-52
2021/07/19 13:18:32;;;;;;;4.00;2.63;;;;;;;;;;5093823;28;20038;-52
2021/07/19 13:21:09;;;;;;;5.70;2.65;;;;;;;;;;5092444;28;20035;-53
2021/07/19 13:23:39;;;;;;;5.25;3.15;;;;;;;;;;5093330;28;20028;-52
2021/07/19 13:26:06;;;;;;;4.13;2.25;;;;;;;;;;5093628;28;20036;-52
2021/07/19 13:28:32;;;;;;;6.30;2.15;;;;;;;;;;5093378;28;20035;-52
2021/07/19 13:31:03;;;;;;;7.40;2.55;;;;;;;;;;5092244;28;20020;-52
2021/07/19 13:33:29;;;;;;;5.28;2.40;;;;;;;;;;5093564;28;20237;-52
2021/07/19 13:35:58;;;;;;;5.13;2.65;;;;;;;;;;5092884;28;20437;-51
2021/07/19 13:38:34;;;;;;;3.07;2.40;;;;;;;;;;5093539;28;20362;-52
2021/07/19 13:41:01;;;;;;;4.82;2.10;;;;;;;;;;5092704;28;20297;-51
2021/07/19 13:43:27;;;;;;;3.03;2.20;;;;;;;;;;5093184;28;20073;-51
2021/07/19 13:46:00;;;;;;;6.97;2.67;;;;;;;;;;5092944;28;20036;-52
2021/07/19 13:48:26;;;;;;;4.28;2.22;;;;;;;;;;5085941;28;20025;-52
2021/07/19 13:50:53;;;;;;;4.40;2.38;;;;;;;;;;5082393;28;20026;-52
2021/07/19 13:53:19;;;;;;;4.68;2.65;;;;;;;;;;5092977;28;20023;-52
2021/07/19 13:55:52;;;;;;;2.50;2.10;;;;;;;;;;5093213;28;20055;-52
2021/07/19 13:58:18;;;;;;;2.40;2.03;;;;;;;;;;5074221;28;20341;-52
2021/07/19 14:00:45;;;;;;;3.50;2.20;;;;;;;;;;5072495;28;20430;-52
2021/07/19 14:03:11;;;;;;;3.70;2.33;;;;;;;;;;5072655;28;20016;-52
2021/07/19 14:05:37;;;;;;;2.40;1.85;;;;;;;;;;5072513;28;20055;-52
2021/07/19 14:08:03;;;;;;;5.50;2.17;;;;;;;;;;5072971;28;20588;-52
2021/07/19 14:10:29;;;;;;;3.78;2.72;;;;;;;;;;5072850;28;20411;-52
2021/07/19 14:12:55;;;;;;;2.33;1.95;;;;;;;;;;5072261;28;20442;-52
2021/07/19 14:15:21;;;;;;;4.05;2.70;;;;;;;;;;5072890;28;20051;-52
2021/07/19 14:17:47;;;;;;;3.58;2.20;;;;;;;;;;5072166;28;20028;-52
2021/07/19 14:20:17;;;;;;;13.02;2.40;;;;;;;;;;5072935;28;20016;-52
2021/07/19 14:22:43;;;;;;;5.30;2.53;;;;;;;;;;5075470;28;20028;-52
2021/07/19 14:25:09;;;;;;;5.20;1.88;;;;;;;;;;5076346;28;20294;-52
2021/07/19 14:27:35;;;;;;;3.40;2.22;;;;;;;;;;5076908;28;20120;-52
2021/07/19 14:30:01;;;;;;;2.47;1.92;;;;;;;;;;5076596;28;20119;-52
2021/07/19 14:32:27;;;;;;;5.93;2.47;;;;;;;;;;5075744;28;20020;-51
2021/07/19 14:34:53;;;;;;;5.05;2.55;;;;;;;;;;5076558;28;20024;-52
2021/07/19 14:37:19;;;;;;;2.85;2.55;;;;;;;;;;5076706;28;20032;-52
2021/07/19 14:39:45;;;;;;;5.35;2.00;;;;;;;;;;5076219;28;20138;-52
2021/07/19 14:42:11;;;;;;;4.82;2.25;;;;;;;;;;5075544;28;20086;-52
2021/07/19 14:44:37;;;;;;;4.10;2.20;;;;;;;;;;5076499;28;20020;-52
2021/07/19 14:47:03;;;;;;;3.92;2.08;;;;;;;;;;5076206;28;20039;-52